sensor_id;sensor_type;location;lat;lon;timestamp;pressure;altitude;pressure_sealevel;temperature;humidity
74403;BME280;62837;51.082;13.744;2024-01-15T00:00:07;98583.46;;;1.96;70.97
74403;BME280;62837;51.082;13.744;2024-01-15T00:02:41;98582.55;;;1.97;70.83
74403;BME280;62837;51.082;13.744;2024-01-15T00:05:12;98581.70;;;1.95;70.95
74403;BME280;62837;51.082;13.744;2024-01-15T00:07:43;98575.52;;;1.95;71.12
74403;BME280;62837;51.082;13.744;2024-01-15T00:10:14;98575.37;;;1.96;71.49
74403;BME280;62837;51.082;13.744;2024-01-15T00:12:45;98571.66;;;1.97;71.45
74403;BME280;62837;51.082;13.744;2024-01-15T00:15:16;98567.99;;;1.99;71.62
74403;BME280;62837;51.082;13.744;2024-01-15T00:17:47;98563.67;;;2.03;71.76
74403;BME280;62837;51.082;13.744;2024-01-15T00:20:18;98563.08;;;2.03;71.12
74403;BME280;62837;51.082;13.744;2024-01-15T00:22:49;98561.92;;;2.02;71.52
74403;BME280;62837;51.082;13.744;2024-01-15T00:25:20;98561.58;;;2.01;71.20
74403;BME280;62837;51.082;13.744;2024-01-15T00:27:51;98565.63;;;2.00;71.24
74403;BME280;62837;51.082;13.744;2024-01-15T00:30:21;98562.41;;;1.99;71.13
74403;BME280;62837;51.082;13.744;2024-01-15T00:32:53;98556.94;;;1.98;71.31
74403;BME280;62837;51.082;13.744;2024-01-15T00:35:24;98552.26;;;1.98;71.37
74403;BME280;62837;51.082;13.744;2024-01-15T00:37:54;98553.26;;;1.99;71.55
74403;BME280;62837;51.082;13.744;2024-01-15T00:40:26;98547.38;;;1.97;71.26
74403;BME280;62837;51.082;13.744;2024-01-15T00:42:57;98548.52;;;1.97;71.42
74403;BME280;62837;51.082;13.744;2024-01-15T00:45:27;98546.81;;;1.96;71.57
74403;BME280;62837;51.082;13.744;2024-01-15T00:47:58;98549.34;;;1.95;71.66
74403;BME280;62837;51.082;13.744;2024-01-15T00:50:30;98543.33;;;1.95;71.58
74403;BME280;62837;51.082;13.744;2024-01-15T00:53:01;98545.71;;;1.94;71.63
74403;BME280;62837;51.082;13.744;2024-01-15T00:55:32;98545.50;;;1.94;71.60
74403;BME280;62837;51.082;13.744;2024-01-15T00:58:03;98541.42;;;1.94;71.68
74403;BME280;62837;51.082;13.744;2024-01-15T01:00:34;98536.81;;;1.93;71.61
74403;BME280;62837;51.082;13.744;2024-01-15T01:03:06;98536.42;;;1.93;71.28
74403;BME280;62837;51.082;13.744;2024-01-15T01:05:37;98532.08;;;1.92;71.47
74403;BME280;62837;51.082;13.744;2024-01-15T01:08:08;98522.93;;;1.93;71.34
74403;BME280;62837;51.082;13.744;2024-01-15T01:10:39;98524.73;;;1.93;71.32
74403;BME280;62837;51.082;13.744;2024-01-15T01:13:10;98527.98;;;1.93;71.04
74403;BME280;62837;51.082;13.744;2024-01-15T01:15:41;98518.46;;;1.92;70.91
74403;BME280;62837;51.082;13.744;2024-01-15T01:18:14;98516.67;;;1.92;71.07
74403;BME280;62837;51.082;13.744;2024-01-15T01:20:45;98505.92;;;1.90;71.12
74403;BME280;62837;51.082;13.744;2024-01-15T01:23:16;98505.54;;;1.89;71.31
74403;BME280;62837;51.082;13.744;2024-01-15T01:25:46;98503.42;;;1.89;71.03
74403;BME280;62837;51.082;13.744;2024-01-15T01:28:17;98498.81;;;1.89;73.12
74403;BME280;62837;51.082;13.744;2024-01-15T01:30:48;98499.11;;;1.99;72.99
74403;BME280;62837;51.082;13.744;2024-01-15T01:33:19;98497.91;;;1.99;71.25
74403;BME280;62837;51.082;13.744;2024-01-15T01:35:51;98494.99;;;1.96;71.29
74403;BME280;62837;51.082;13.744;2024-01-15T01:38:22;98491.05;;;1.92;70.90
74403;BME280;62837;51.082;13.744;2024-01-15T01:40:53;98487.33;;;1.90;70.83
74403;BME280;62837;51.082;13.744;2024-01-15T01:43:24;98486.77;;;1.89;71.66
74403;BME280;62837;51.082;13.744;2024-01-15T01:45:57;98480.59;;;1.93;71.84
74403;BME280;62837;51.082;13.744;2024-01-15T01:48:28;98480.80;;;1.89;70.93
74403;BME280;62837;51.082;13.744;2024-01-15T01:51:02;98487.96;;;1.86;70.77
74403;BME280;62837;51.082;13.744;2024-01-15T01:53:36;98490.36;;;1.83;71.24
74403;BME280;62837;51.082;13.744;2024-01-15T01:56:08;98490.39;;;1.84;71.39
74403;BME280;62837;51.082;13.744;2024-01-15T01:58:40;98490.34;;;1.84;71.18
74403;BME280;62837;51.082;13.744;2024-01-15T02:01:11;98484.45;;;1.82;71.08
74403;BME280;62837;51.082;13.744;2024-01-15T02:03:44;98487.38;;;1.82;71.63
74403;BME280;62837;51.082;13.744;2024-01-15T02:06:15;98475.92;;;1.85;71.10
74403;BME280;62837;51.082;13.744;2024-01-15T02:08:46;98474.98;;;1.84;70.93
74403;BME280;62837;51.082;13.744;2024-01-15T02:11:16;98478.98;;;1.82;70.90
74403;BME280;62837;51.082;13.744;2024-01-15T02:13:47;98473.64;;;1.81;70.64
74403;BME280;62837;51.082;13.744;2024-01-15T02:16:18;98472.31;;;1.78;70.89
74403;BME280;62837;51.082;13.744;2024-01-15T02:18:49;98468.99;;;1.77;70.67
74403;BME280;62837;51.082;13.744;2024-01-15T02:21:20;98478.02;;;1.76;71.17
74403;BME280;62837;51.082;13.744;2024-01-15T02:23:51;98474.53;;;1.75;70.91
74403;BME280;62837;51.082;13.744;2024-01-15T02:26:22;98468.30;;;1.74;70.66
74403;BME280;62837;51.082;13.744;2024-01-15T02:28:53;98464.60;;;1.73;70.54
74403;BME280;62837;51.082;13.744;2024-01-15T02:31:24;98464.20;;;1.72;70.69
74403;BME280;62837;51.082;13.744;2024-01-15T02:33:55;98461.02;;;1.73;70.63
74403;BME280;62837;51.082;13.744;2024-01-15T02:36:26;98460.02;;;1.71;70.49
74403;BME280;62837;51.082;13.744;2024-01-15T02:38:57;98453.85;;;1.68;70.53
74403;BME280;62837;51.082;13.744;2024-01-15T02:41:28;98455.18;;;1.67;70.90
74403;BME280;62837;51.082;13.744;2024-01-15T02:43:59;98452.14;;;1.66;71.22
74403;BME280;62837;51.082;13.744;2024-01-15T02:46:29;98447.90;;;1.68;70.98
74403;BME280;62837;51.082;13.744;2024-01-15T02:49:00;98453.01;;;1.66;70.73
74403;BME280;62837;51.082;13.744;2024-01-15T02:51:31;98445.87;;;1.63;70.44
74403;BME280;62837;51.082;13.744;2024-01-15T02:54:02;98444.58;;;1.61;70.55
74403;BME280;62837;51.082;13.744;2024-01-15T02:56:33;98438.34;;;1.59;70.55
74403;BME280;62837;51.082;13.744;2024-01-15T02:59:04;98434.28;;;1.57;70.56
74403;BME280;62837;51.082;13.744;2024-01-15T03:01:35;98443.90;;;1.55;70.87
74403;BME280;62837;51.082;13.744;2024-01-15T03:04:06;98442.55;;;1.55;70.62
74403;BME280;62837;51.082;13.744;2024-01-15T03:06:37;98433.48;;;1.54;70.58
74403;BME280;62837;51.082;13.744;2024-01-15T03:09:07;98434.94;;;1.53;70.52
74403;BME280;62837;51.082;13.744;2024-01-15T03:11:40;98429.50;;;1.52;70.64
74403;BME280;62837;51.082;13.744;2024-01-15T03:14:11;98432.66;;;1.49;70.69
74403;BME280;62837;51.082;13.744;2024-01-15T03:16:42;98436.43;;;1.48;70.77
74403;BME280;62837;51.082;13.744;2024-01-15T03:19:13;98432.80;;;1.48;70.82
74403;BME280;62837;51.082;13.744;2024-01-15T03:21:43;98441.83;;;1.47;70.20
74403;BME280;62837;51.082;13.744;2024-01-15T03:24:15;98441.85;;;1.46;70.34
74403;BME280;62837;51.082;13.744;2024-01-15T03:26:46;98433.45;;;1.44;70.55
74403;BME280;62837;51.082;13.744;2024-01-15T03:29:16;98436.86;;;1.44;70.85
74403;BME280;62837;51.082;13.744;2024-01-15T03:31:47;98437.02;;;1.44;70.32
74403;BME280;62837;51.082;13.744;2024-01-15T03:34:18;98446.95;;;1.42;70.21
74403;BME280;62837;51.082;13.744;2024-01-15T03:36:49;98447.52;;;1.40;70.63
74403;BME280;62837;51.082;13.744;2024-01-15T03:39:20;98448.48;;;1.40;70.26
74403;BME280;62837;51.082;13.744;2024-01-15T03:41:51;98452.38;;;1.39;70.30
74403;BME280;62837;51.082;13.744;2024-01-15T03:44:22;98453.65;;;1.37;70.38
74403;BME280;62837;51.082;13.744;2024-01-15T03:46:53;98460.89;;;1.36;70.12
74403;BME280;62837;51.082;13.744;2024-01-15T03:49:23;98463.59;;;1.36;70.41
74403;BME280;62837;51.082;13.744;2024-01-15T03:51:55;98459.98;;;1.34;70.29
74403;BME280;62837;51.082;13.744;2024-01-15T03:54:25;98456.73;;;1.33;70.45
74403;BME280;62837;51.082;13.744;2024-01-15T03:56:56;98459.27;;;1.33;70.65
74403;BME280;62837;51.082;13.744;2024-01-15T03:59:27;98456.73;;;1.34;70.95
74403;BME280;62837;51.082;13.744;2024-01-15T04:01:58;98454.58;;;1.34;70.80
74403;BME280;62837;51.082;13.744;2024-01-15T04:04:29;98454.10;;;1.31;71.32
74403;BME280;62837;51.082;13.744;2024-01-15T04:07:00;98453.23;;;1.31;71.57
74403;BME280;62837;51.082;13.744;2024-01-15T04:09:31;98448.66;;;1.29;71.31
74403;BME280;62837;51.082;13.744;2024-01-15T04:12:02;98455.45;;;1.27;71.59
74403;BME280;62837;51.082;13.744;2024-01-15T04:14:33;98453.56;;;1.24;71.06
74403;BME280;62837;51.082;13.744;2024-01-15T04:17:04;98453.15;;;1.22;70.87
74403;BME280;62837;51.082;13.744;2024-01-15T04:19:35;98447.31;;;1.20;71.45
74403;BME280;62837;51.082;13.744;2024-01-15T04:22:05;98444.94;;;1.21;71.29
74403;BME280;62837;51.082;13.744;2024-01-15T04:24:36;98441.95;;;1.20;71.44
74403;BME280;62837;51.082;13.744;2024-01-15T04:27:08;98434.91;;;1.19;71.28
74403;BME280;62837;51.082;13.744;2024-01-15T04:29:40;98434.34;;;1.17;71.60
74403;BME280;62837;51.082;13.744;2024-01-15T04:32:11;98434.19;;;1.16;71.30
74403;BME280;62837;51.082;13.744;2024-01-15T04:34:42;98432.45;;;1.14;71.34
74403;BME280;62837;51.082;13.744;2024-01-15T04:37:14;98430.09;;;1.12;71.06
74403;BME280;62837;51.082;13.744;2024-01-15T04:39:45;98426.77;;;1.12;71.22
74403;BME280;62837;51.082;13.744;2024-01-15T04:42:16;98427.48;;;1.12;71.07
74403;BME280;62837;51.082;13.744;2024-01-15T04:44:47;98426.10;;;1.14;70.85
74403;BME280;62837;51.082;13.744;2024-01-15T04:47:18;98425.90;;;1.15;70.82
74403;BME280;62837;51.082;13.744;2024-01-15T04:49:49;98426.34;;;1.14;70.47
74403;BME280;62837;51.082;13.744;2024-01-15T04:52:20;98431.27;;;1.12;70.38
74403;BME280;62837;51.082;13.744;2024-01-15T04:54:51;98429.71;;;1.09;70.61
74403;BME280;62837;51.082;13.744;2024-01-15T04:57:22;98422.23;;;1.06;70.63
74403;BME280;62837;51.082;13.744;2024-01-15T04:59:52;98427.85;;;1.02;70.52
74403;BME280;62837;51.082;13.744;2024-01-15T05:02:23;98420.42;;;0.98;70.49
74403;BME280;62837;51.082;13.744;2024-01-15T05:05:00;98427.13;;;0.94;70.51
74403;BME280;62837;51.082;13.744;2024-01-15T05:07:31;98428.95;;;0.90;70.50
74403;BME280;62837;51.082;13.744;2024-01-15T05:10:02;98434.50;;;0.85;70.57
74403;BME280;62837;51.082;13.744;2024-01-15T05:12:33;98436.70;;;0.85;70.82
74403;BME280;62837;51.082;13.744;2024-01-15T05:15:05;98440.88;;;0.84;70.61
74403;BME280;62837;51.082;13.744;2024-01-15T05:17:36;98443.00;;;0.86;70.88
74403;BME280;62837;51.082;13.744;2024-01-15T05:20:09;98443.25;;;0.84;70.63
74403;BME280;62837;51.082;13.744;2024-01-15T05:22:41;98446.52;;;0.82;70.59
74403;BME280;62837;51.082;13.744;2024-01-15T05:25:12;98448.08;;;0.80;70.55
74403;BME280;62837;51.082;13.744;2024-01-15T05:27:43;98452.86;;;0.81;71.01
74403;BME280;62837;51.082;13.744;2024-01-15T05:30:15;98460.31;;;0.82;70.98
74403;BME280;62837;51.082;13.744;2024-01-15T05:32:46;98451.68;;;0.84;70.86
74403;BME280;62837;51.082;13.744;2024-01-15T05:35:17;98444.23;;;0.85;70.56
74403;BME280;62837;51.082;13.744;2024-01-15T05:37:48;98441.80;;;0.85;70.24
74403;BME280;62837;51.082;13.744;2024-01-15T05:40:19;98446.83;;;0.86;70.33
74403;BME280;62837;51.082;13.744;2024-01-15T05:42:50;98441.69;;;0.85;70.42
74403;BME280;62837;51.082;13.744;2024-01-15T05:45:21;98437.13;;;0.83;70.23
74403;BME280;62837;51.082;13.744;2024-01-15T05:47:52;98444.34;;;0.82;70.25
74403;BME280;62837;51.082;13.744;2024-01-15T05:50:23;98453.80;;;0.81;70.40
74403;BME280;62837;51.082;13.744;2024-01-15T05:52:54;98458.63;;;0.82;70.13
74403;BME280;62837;51.082;13.744;2024-01-15T05:55:25;98452.88;;;0.84;70.04
74403;BME280;62837;51.082;13.744;2024-01-15T05:57:56;98457.40;;;0.86;70.20
74403;BME280;62837;51.082;13.744;2024-01-15T06:00:27;98461.96;;;0.91;70.51
74403;BME280;62837;51.082;13.744;2024-01-15T06:02:58;98452.81;;;0.93;69.77
74403;BME280;62837;51.082;13.744;2024-01-15T06:05:29;98452.42;;;0.93;69.35
74403;BME280;62837;51.082;13.744;2024-01-15T06:07:59;98445.05;;;0.91;69.41
74403;BME280;62837;51.082;13.744;2024-01-15T06:10:30;98445.89;;;0.93;69.36
74403;BME280;62837;51.082;13.744;2024-01-15T06:13:01;98443.18;;;0.93;69.22
74403;BME280;62837;51.082;13.744;2024-01-15T06:15:32;98441.85;;;0.94;69.43
74403;BME280;62837;51.082;13.744;2024-01-15T06:18:04;98434.47;;;0.96;68.95
74403;BME280;62837;51.082;13.744;2024-01-15T06:20:35;98439.30;;;0.97;68.90
74403;BME280;62837;51.082;13.744;2024-01-15T06:23:07;98430.02;;;0.99;68.75
74403;BME280;62837;51.082;13.744;2024-01-15T06:25:38;98423.83;;;1.01;68.20
74403;BME280;62837;51.082;13.744;2024-01-15T06:28:09;98422.77;;;1.00;67.98
74403;BME280;62837;51.082;13.744;2024-01-15T06:30:40;98425.49;;;1.01;68.23
74403;BME280;62837;51.082;13.744;2024-01-15T06:33:11;98425.23;;;1.01;68.13
74403;BME280;62837;51.082;13.744;2024-01-15T06:35:42;98419.56;;;1.02;68.24
74403;BME280;62837;51.082;13.744;2024-01-15T06:38:13;98422.52;;;1.01;68.25
74403;BME280;62837;51.082;13.744;2024-01-15T06:40:44;98425.06;;;1.00;68.12
74403;BME280;62837;51.082;13.744;2024-01-15T06:43:22;98425.42;;;0.99;68.10
74403;BME280;62837;51.082;13.744;2024-01-15T06:45:53;98413.77;;;0.97;67.94
74403;BME280;62837;51.082;13.744;2024-01-15T06:48:24;98420.69;;;0.97;68.09
74403;BME280;62837;51.082;13.744;2024-01-15T06:50:55;98426.77;;;0.96;67.99
74403;BME280;62837;51.082;13.744;2024-01-15T06:53:26;98418.97;;;0.95;67.95
74403;BME280;62837;51.082;13.744;2024-01-15T06:55:56;98427.64;;;0.94;67.87
74403;BME280;62837;51.082;13.744;2024-01-15T06:58:27;98435.03;;;0.94;67.97
74403;BME280;62837;51.082;13.744;2024-01-15T07:00:58;98431.88;;;0.94;67.94
74403;BME280;62837;51.082;13.744;2024-01-15T07:03:29;98433.89;;;0.94;67.99
74403;BME280;62837;51.082;13.744;2024-01-15T07:06:00;98434.52;;;0.93;67.89
74403;BME280;62837;51.082;13.744;2024-01-15T07:08:31;98433.88;;;0.93;67.95
74403;BME280;62837;51.082;13.744;2024-01-15T07:11:05;98433.52;;;0.94;67.96
74403;BME280;62837;51.082;13.744;2024-01-15T07:13:37;98433.63;;;0.95;68.04
74403;BME280;62837;51.082;13.744;2024-01-15T07:16:08;98436.26;;;0.97;68.20
74403;BME280;62837;51.082;13.744;2024-01-15T07:18:39;98447.13;;;1.00;68.21
74403;BME280;62837;51.082;13.744;2024-01-15T07:21:10;98455.62;;;1.02;68.18
74403;BME280;62837;51.082;13.744;2024-01-15T07:23:41;98456.67;;;1.03;68.05
74403;BME280;62837;51.082;13.744;2024-01-15T07:26:12;98454.69;;;1.04;68.05
74403;BME280;62837;51.082;13.744;2024-01-15T07:28:43;98472.48;;;1.07;67.88
74403;BME280;62837;51.082;13.744;2024-01-15T07:31:13;98473.91;;;1.11;70.10
74403;BME280;62837;51.082;13.744;2024-01-15T07:33:45;98475.39;;;1.19;69.57
74403;BME280;62837;51.082;13.744;2024-01-15T07:36:17;98472.17;;;1.21;68.86
74403;BME280;62837;51.082;13.744;2024-01-15T07:38:48;98481.80;;;1.20;68.49
74403;BME280;62837;51.082;13.744;2024-01-15T07:41:19;98474.77;;;1.17;67.77
74403;BME280;62837;51.082;13.744;2024-01-15T07:43:49;98470.27;;;1.14;68.18
74403;BME280;62837;51.082;13.744;2024-01-15T07:46:20;98466.95;;;1.10;67.85
74403;BME280;62837;51.082;13.744;2024-01-15T07:48:51;98475.39;;;1.06;67.75
74403;BME280;62837;51.082;13.744;2024-01-15T07:51:26;98466.96;;;1.08;71.85
74403;BME280;62837;51.082;13.744;2024-01-15T07:53:57;98469.40;;;1.44;75.12
74403;BME280;62837;51.082;13.744;2024-01-15T07:56:28;98467.09;;;1.73;71.85
74403;BME280;62837;51.082;13.744;2024-01-15T07:58:59;98457.23;;;1.78;67.90
74403;BME280;62837;51.082;13.744;2024-01-15T08:01:30;98454.83;;;1.64;66.41
74403;BME280;62837;51.082;13.744;2024-01-15T08:04:01;98465.86;;;1.53;66.86
74403;BME280;62837;51.082;13.744;2024-01-15T08:06:32;98463.66;;;1.47;66.66
74403;BME280;62837;51.082;13.744;2024-01-15T08:09:04;98459.45;;;1.37;65.95
74403;BME280;62837;51.082;13.744;2024-01-15T08:11:35;98463.52;;;1.28;66.01
74403;BME280;62837;51.082;13.744;2024-01-15T08:14:06;98465.48;;;1.21;65.98
74403;BME280;62837;51.082;13.744;2024-01-15T08:16:37;98467.81;;;1.16;65.91
74403;BME280;62837;51.082;13.744;2024-01-15T08:19:08;98470.38;;;1.13;66.61
74403;BME280;62837;51.082;13.744;2024-01-15T08:21:40;98475.65;;;1.15;66.24
74403;BME280;62837;51.082;13.744;2024-01-15T08:24:11;98477.35;;;1.14;66.12
74403;BME280;62837;51.082;13.744;2024-01-15T08:26:42;98474.00;;;1.11;66.18
74403;BME280;62837;51.082;13.744;2024-01-15T08:29:13;98478.53;;;1.10;66.15
74403;BME280;62837;51.082;13.744;2024-01-15T08:31:45;98475.35;;;1.04;66.19
74403;BME280;62837;51.082;13.744;2024-01-15T08:34:17;98474.98;;;1.07;66.18
74403;BME280;62837;51.082;13.744;2024-01-15T08:36:48;98480.67;;;1.05;66.30
74403;BME280;62837;51.082;13.744;2024-01-15T08:39:19;98472.34;;;1.04;66.22
74403;BME280;62837;51.082;13.744;2024-01-15T08:41:50;98475.73;;;1.05;66.15
74403;BME280;62837;51.082;13.744;2024-01-15T08:44:21;98482.42;;;1.02;65.86
74403;BME280;62837;51.082;13.744;2024-01-15T08:46:52;98473.95;;;1.04;66.02
74403;BME280;62837;51.082;13.744;2024-01-15T08:49:23;98479.56;;;1.07;66.01
74403;BME280;62837;51.082;13.744;2024-01-15T08:51:55;98475.88;;;1.09;66.14
74403;BME280;62837;51.082;13.744;2024-01-15T08:54:26;98473.31;;;1.12;65.83
74403;BME280;62837;51.082;13.744;2024-01-15T08:56:57;98465.34;;;1.13;65.68
74403;BME280;62837;51.082;13.744;2024-01-15T08:59:29;98468.17;;;1.15;65.77
74403;BME280;62837;51.082;13.744;2024-01-15T09:02:00;98473.39;;;1.18;65.41
74403;BME280;62837;51.082;13.744;2024-01-15T09:04:31;98473.89;;;1.19;65.41
74403;BME280;62837;51.082;13.744;2024-01-15T09:07:02;98478.39;;;1.19;65.35
74403;BME280;62837;51.082;13.744;2024-01-15T09:09:33;98473.00;;;1.18;65.17
74403;BME280;62837;51.082;13.744;2024-01-15T09:12:07;98484.23;;;1.17;65.36
74403;BME280;62837;51.082;13.744;2024-01-15T09:14:38;98480.83;;;1.17;65.48
74403;BME280;62837;51.082;13.744;2024-01-15T09:17:09;98477.14;;;1.26;65.38
74403;BME280;62837;51.082;13.744;2024-01-15T09:19:40;98479.92;;;1.45;64.93
74403;BME280;62837;51.082;13.744;2024-01-15T09:22:13;98480.41;;;1.51;64.42
74403;BME280;62837;51.082;13.744;2024-01-15T09:24:48;98476.23;;;1.58;64.41
74403;BME280;62837;51.082;13.744;2024-01-15T09:27:18;98474.80;;;1.86;64.47
74403;BME280;62837;51.082;13.744;2024-01-15T09:29:49;98472.11;;;2.24;63.13
74403;BME280;62837;51.082;13.744;2024-01-15T09:32:20;98469.80;;;2.48;61.98
74403;BME280;62837;51.082;13.744;2024-01-15T09:34:51;98472.75;;;2.50;61.55
74403;BME280;62837;51.082;13.744;2024-01-15T09:37:22;98475.58;;;2.70;60.85
74403;BME280;62837;51.082;13.744;2024-01-15T09:40:14;98464.20;;;2.94;60.95
74403;BME280;62837;51.082;13.744;2024-01-15T09:42:47;98470.27;;;3.08;59.69
74403;BME280;62837;51.082;13.744;2024-01-15T09:45:18;98469.05;;;3.07;59.41
74403;BME280;62837;51.082;13.744;2024-01-15T09:47:50;98474.33;;;2.91;59.33
74403;BME280;62837;51.082;13.744;2024-01-15T09:50:20;98467.19;;;2.78;60.12
74403;BME280;62837;51.082;13.744;2024-01-15T09:52:52;98470.41;;;2.69;60.54
74403;BME280;62837;51.082;13.744;2024-01-15T09:55:23;98472.21;;;2.60;60.15
74403;BME280;62837;51.082;13.744;2024-01-15T09:57:56;98471.18;;;2.55;60.34
74403;BME280;62837;51.082;13.744;2024-01-15T10:00:29;98471.52;;;2.57;60.92
74403;BME280;62837;51.082;13.744;2024-01-15T10:03:00;98466.59;;;2.57;60.15
74403;BME280;62837;51.082;13.744;2024-01-15T10:05:31;98468.64;;;2.51;60.26
74403;BME280;62837;51.082;13.744;2024-01-15T10:08:04;98463.67;;;2.47;60.61
74403;BME280;62837;51.082;13.744;2024-01-15T10:10:34;98458.89;;;2.53;60.55
74403;BME280;62837;51.082;13.744;2024-01-15T10:13:07;98463.80;;;2.76;60.22
74403;BME280;62837;51.082;13.744;2024-01-15T10:15:39;98458.89;;;2.94;58.94
74403;BME280;62837;51.082;13.744;2024-01-15T10:18:11;98459.60;;;3.13;59.26
74403;BME280;62837;51.082;13.744;2024-01-15T10:20:42;98454.52;;;3.28;58.37
74403;BME280;62837;51.082;13.744;2024-01-15T10:23:13;98450.65;;;3.40;58.22
74403;BME280;62837;51.082;13.744;2024-01-15T10:25:44;98450.23;;;3.58;58.27
74403;BME280;62837;51.082;13.744;2024-01-15T10:28:15;98451.58;;;3.62;57.37
74403;BME280;62837;51.082;13.744;2024-01-15T10:30:46;98453.56;;;3.58;57.54
74403;BME280;62837;51.082;13.744;2024-01-15T10:33:23;98445.95;;;3.57;57.51
74403;BME280;62837;51.082;13.744;2024-01-15T10:35:58;98451.71;;;3.58;57.69
74403;BME280;62837;51.082;13.744;2024-01-15T10:38:30;98457.22;;;3.61;58.04
74403;BME280;62837;51.082;13.744;2024-01-15T10:41:01;98454.92;;;3.61;57.39
74403;BME280;62837;51.082;13.744;2024-01-15T10:43:32;98448.98;;;3.49;57.28
74403;BME280;62837;51.082;13.744;2024-01-15T10:46:03;98438.30;;;3.30;57.57
74403;BME280;62837;51.082;13.744;2024-01-15T10:48:35;98445.04;;;3.17;58.16
74403;BME280;62837;51.082;13.744;2024-01-15T10:51:07;98440.92;;;3.06;57.98
74403;BME280;62837;51.082;13.744;2024-01-15T10:53:41;98446.73;;;2.98;58.72
74403;BME280;62837;51.082;13.744;2024-01-15T10:56:14;98443.26;;;3.06;58.53
74403;BME280;62837;51.082;13.744;2024-01-15T10:58:46;98441.16;;;3.15;58.51
74403;BME280;62837;51.082;13.744;2024-01-15T11:01:18;98437.41;;;3.14;58.18
74403;BME280;62837;51.082;13.744;2024-01-15T11:03:51;98443.38;;;3.13;58.09
74403;BME280;62837;51.082;13.744;2024-01-15T11:06:25;98445.95;;;3.11;58.23
74403;BME280;62837;51.082;13.744;2024-01-15T11:08:59;98442.03;;;3.08;57.93
74403;BME280;62837;51.082;13.744;2024-01-15T11:11:30;98442.33;;;3.12;58.27
74403;BME280;62837;51.082;13.744;2024-01-15T11:14:01;98441.10;;;3.13;58.04
74403;BME280;62837;51.082;13.744;2024-01-15T11:16:55;98441.73;;;3.07;57.80
74403;BME280;62837;51.082;13.744;2024-01-15T11:19:27;98442.61;;;3.00;58.05
74403;BME280;62837;51.082;13.744;2024-01-15T11:22:07;98446.73;;;2.94;58.62
74403;BME280;62837;51.082;13.744;2024-01-15T11:24:39;98446.44;;;2.92;58.70
74403;BME280;62837;51.082;13.744;2024-01-15T11:27:10;98441.66;;;2.87;58.78
74403;BME280;62837;51.082;13.744;2024-01-15T11:29:41;98441.84;;;2.77;58.65
74403;BME280;62837;51.082;13.744;2024-01-15T11:32:12;98436.88;;;2.65;59.21
74403;BME280;62837;51.082;13.744;2024-01-15T11:34:57;98439.17;;;2.56;59.49
74403;BME280;62837;51.082;13.744;2024-01-15T11:37:59;98435.38;;;2.47;59.36
74403;BME280;62837;51.082;13.744;2024-01-15T11:40:41;98430.85;;;2.44;59.98
74403;BME280;62837;51.082;13.744;2024-01-15T11:43:14;98422.78;;;2.50;60.30
74403;BME280;62837;51.082;13.744;2024-01-15T11:45:53;98417.67;;;2.54;60.07
74403;BME280;62837;51.082;13.744;2024-01-15T11:48:32;98418.83;;;2.60;60.06
74403;BME280;62837;51.082;13.744;2024-01-15T11:51:12;98426.68;;;2.70;59.77
74403;BME280;62837;51.082;13.744;2024-01-15T11:53:45;98417.70;;;2.83;59.55
74403;BME280;62837;51.082;13.744;2024-01-15T11:56:18;98418.98;;;2.93;59.49
74403;BME280;62837;51.082;13.744;2024-01-15T11:58:52;98421.08;;;2.92;59.05
74403;BME280;62837;51.082;13.744;2024-01-15T12:01:23;98418.00;;;2.92;59.80
74403;BME280;62837;51.082;13.744;2024-01-15T12:03:54;98416.27;;;2.94;59.17
74403;BME280;62837;51.082;13.744;2024-01-15T12:06:25;98421.39;;;2.96;59.40
74403;BME280;62837;51.082;13.744;2024-01-15T12:09:08;98414.90;;;2.97;59.43
74403;BME280;62837;51.082;13.744;2024-01-15T12:11:44;98409.88;;;2.96;59.38
74403;BME280;62837;51.082;13.744;2024-01-15T12:14:18;98416.83;;;2.89;59.03
74403;BME280;62837;51.082;13.744;2024-01-15T12:16:51;98417.18;;;2.81;59.79
74403;BME280;62837;51.082;13.744;2024-01-15T12:19:22;98413.64;;;2.74;60.20
74403;BME280;62837;51.082;13.744;2024-01-15T12:21:54;98415.16;;;2.69;60.18
74403;BME280;62837;51.082;13.744;2024-01-15T12:24:25;98416.08;;;2.64;61.18
74403;BME280;62837;51.082;13.744;2024-01-15T12:26:56;98412.04;;;2.60;61.01
74403;BME280;62837;51.082;13.744;2024-01-15T12:29:27;98414.73;;;2.58;61.42
74403;BME280;62837;51.082;13.744;2024-01-15T12:31:59;98413.27;;;2.58;61.75
74403;BME280;62837;51.082;13.744;2024-01-15T12:34:31;98399.90;;;2.50;61.58
74403;BME280;62837;51.082;13.744;2024-01-15T12:37:03;98409.84;;;2.57;61.42
74403;BME280;62837;51.082;13.744;2024-01-15T12:39:35;98406.35;;;2.56;62.04
74403;BME280;62837;51.082;13.744;2024-01-15T12:42:07;98406.38;;;2.55;62.02
74403;BME280;62837;51.082;13.744;2024-01-15T12:44:40;98411.69;;;2.52;62.11
74403;BME280;62837;51.082;13.744;2024-01-15T12:47:11;98408.13;;;2.50;62.74
74403;BME280;62837;51.082;13.744;2024-01-15T12:49:48;98410.54;;;2.46;62.61
74403;BME280;62837;51.082;13.744;2024-01-15T12:52:29;98403.73;;;2.44;62.75
74403;BME280;62837;51.082;13.744;2024-01-15T12:55:01;98410.15;;;2.41;63.05
74403;BME280;62837;51.082;13.744;2024-01-15T12:57:34;98404.26;;;2.37;63.67
74403;BME280;62837;51.082;13.744;2024-01-15T13:00:07;98401.95;;;2.33;63.73
74403;BME280;62837;51.082;13.744;2024-01-15T13:02:43;98401.49;;;2.32;63.99
74403;BME280;62837;51.082;13.744;2024-01-15T13:05:16;98400.98;;;2.31;64.02
74403;BME280;62837;51.082;13.744;2024-01-15T13:07:48;98405.67;;;2.28;64.50
74403;BME280;62837;51.082;13.744;2024-01-15T13:10:19;98405.52;;;2.29;65.03
74403;BME280;62837;51.082;13.744;2024-01-15T13:12:51;98412.24;;;2.29;64.72
74403;BME280;62837;51.082;13.744;2024-01-15T13:15:23;98407.20;;;2.29;64.80
74403;BME280;62837;51.082;13.744;2024-01-15T13:17:53;98408.34;;;2.28;65.07
74403;BME280;62837;51.082;13.744;2024-01-15T13:20:25;98406.61;;;2.26;64.97
74403;BME280;62837;51.082;13.744;2024-01-15T13:22:56;98403.36;;;2.26;65.06